createdAt,value
2017-10-31T00:00:12.206Z,0
2017-10-31T00:01:12.553Z,0
2017-10-31T00:02:11.580Z,0
2017-10-31T00:03:12.246Z,0
2017-10-31T00:04:12.267Z,0
2017-10-31T00:05:11.960Z,0
2017-10-31T00:06:12.289Z,0
2017-10-31T00:07:11.984Z,0
2017-10-31T00:08:12.009Z,0
2017-10-31T00:09:11.698Z,0
2017-10-31T00:10:12.412Z,0
2017-10-31T00:11:12.695Z,0
2017-10-31T00:12:12.392Z,0
2017-10-31T00:13:11.773Z,0
2017-10-31T00:14:12.106Z,0
2017-10-31T00:15:12.438Z,0
2017-10-31T00:16:12.451Z,0
2017-10-31T00:17:12.492Z,0
2017-10-31T00:18:12.477Z,0
2017-10-31T00:19:12.839Z,0
2017-10-31T00:20:12.523Z,0
2017-10-31T00:21:12.215Z,0
2017-10-31T00:22:12.226Z,0
2017-10-31T00:23:12.570Z,0
2017-10-31T00:24:11.934Z,0
2017-10-31T00:25:12.595Z,0
2017-10-31T00:26:12.301Z,0
2017-10-31T00:27:12.640Z,0
2017-10-31T00:28:12.323Z,0
2017-10-31T00:29:12.390Z,0
2017-10-31T00:30:12.366Z,0
2017-10-31T00:31:12.772Z,0
2017-10-31T00:32:12.401Z,0
2017-10-31T00:33:12.401Z,0
2017-10-31T00:34:12.410Z,0
2017-10-31T00:35:13.096Z,0
2017-10-31T00:36:12.454Z,0
2017-10-31T00:37:12.161Z,0
2017-10-31T00:38:12.796Z,0
2017-10-31T00:39:12.837Z,0
2017-10-31T00:40:12.839Z,0
2017-10-31T00:41:12.852Z,0
2017-10-31T00:42:12.879Z,0
2017-10-31T00:43:12.586Z,0
2017-10-31T00:44:12.895Z,0
2017-10-31T00:45:12.644Z,0
2017-10-31T00:46:12.626Z,0
2017-10-31T00:47:12.945Z,0
2017-10-31T00:48:12.000Z,0
2017-10-31T00:49:12.991Z,0
2017-10-31T00:50:12.997Z,0
2017-10-31T00:51:13.336Z,0
2017-10-31T00:52:13.345Z,0
2017-10-31T00:53:12.716Z,0
2017-10-31T00:54:13.066Z,0
2017-10-31T00:55:13.073Z,0
2017-10-31T00:56:13.085Z,0
2017-10-31T00:57:12.462Z,0
2017-10-31T00:58:13.128Z,0
2017-10-31T00:59:13.482Z,0
2017-10-31T01:00:13.175Z,0
2017-10-31T01:01:13.183Z,0
2017-10-31T01:02:13.267Z,0
2017-10-31T01:03:13.203Z,0
2017-10-31T01:04:12.944Z,0
2017-10-31T01:05:13.580Z,0
2017-10-31T01:06:12.930Z,0
2017-10-31T01:07:12.949Z,0
2017-10-31T01:08:13.301Z,0
2017-10-31T01:09:12.978Z,0
2017-10-31T01:10:12.991Z,0
2017-10-31T01:11:13.342Z,0
2017-10-31T01:12:13.023Z,0
2017-10-31T01:13:13.043Z,0
2017-10-31T01:14:13.374Z,0
2017-10-31T01:15:13.718Z,0
2017-10-31T01:16:12.773Z,0
2017-10-31T01:17:13.795Z,0
2017-10-31T01:18:13.434Z,0
2017-10-31T01:19:12.865Z,0
2017-10-31T01:20:13.797Z,0
2017-10-31T01:21:13.174Z,0
2017-10-31T01:22:13.288Z,0
2017-10-31T01:23:12.890Z,0
2017-10-31T01:24:12.937Z,0
2017-10-31T01:25:13.574Z,0
2017-10-31T01:26:13.572Z,0
2017-10-31T01:27:13.263Z,0
2017-10-31T01:28:13.599Z,0
2017-10-31T01:29:13.611Z,0
2017-10-31T01:30:13.303Z,0
2017-10-31T01:31:13.643Z,0
2017-10-31T01:32:13.683Z,0
2017-10-31T01:33:13.670Z,0
2017-10-31T01:34:13.388Z,0
2017-10-31T01:35:13.381Z,0
2017-10-31T01:36:13.404Z,0
2017-10-31T01:37:14.057Z,0
2017-10-31T01:38:13.110Z,0
2017-10-31T01:39:13.131Z,0
2017-10-31T01:40:13.916Z,0
2017-10-31T01:41:13.800Z,0
2017-10-31T01:42:13.812Z,0
2017-10-31T01:43:13.814Z,0
2017-10-31T01:44:13.837Z,0
2017-10-31T01:45:13.572Z,0
2017-10-31T01:46:13.577Z,0
2017-10-31T01:47:13.573Z,0
2017-10-31T01:48:13.595Z,0
2017-10-31T01:49:13.673Z,0
2017-10-31T01:50:13.953Z,0
2017-10-31T01:51:13.637Z,0
2017-10-31T01:52:13.651Z,0
2017-10-31T01:53:14.004Z,0
2017-10-31T01:54:13.356Z,0
2017-10-31T01:55:14.044Z,0
2017-10-31T01:56:13.714Z,0
2017-10-31T01:57:14.376Z,0
2017-10-31T01:58:14.078Z,0
2017-10-31T01:59:14.081Z,0
2017-10-31T02:00:14.118Z,0
2017-10-31T02:01:14.128Z,0
2017-10-31T02:02:14.473Z,0
2017-10-31T02:03:13.826Z,0
2017-10-31T02:04:13.896Z,0
2017-10-31T02:05:13.861Z,0
2017-10-31T02:06:13.874Z,0
2017-10-31T02:07:14.207Z,0
2017-10-31T02:08:13.905Z,0
2017-10-31T02:09:14.565Z,0
2017-10-31T02:10:14.582Z,0
2017-10-31T02:11:13.949Z,0
2017-10-31T02:12:14.284Z,0
2017-10-31T02:13:14.307Z,0
2017-10-31T02:14:14.007Z,0
2017-10-31T02:15:14.650Z,0
2017-10-31T02:16:13.705Z,0
2017-10-31T02:17:14.364Z,0
2017-10-31T02:18:13.413Z,0
2017-10-31T02:19:14.762Z,0
2017-10-31T02:20:14.738Z,0
2017-10-31T02:21:14.420Z,0
2017-10-31T02:22:14.118Z,0
2017-10-31T02:23:13.819Z,0
2017-10-31T02:24:14.506Z,0
2017-10-31T02:25:14.162Z,0
2017-10-31T02:26:14.183Z,0
2017-10-31T02:27:14.200Z,0
2017-10-31T02:28:13.892Z,0
2017-10-31T02:29:14.549Z,0
2017-10-31T02:30:14.570Z,0
2017-10-31T02:31:14.259Z,0
2017-10-31T02:32:14.621Z,0
2017-10-31T02:33:14.624Z,0
2017-10-31T02:34:15.002Z,0
2017-10-31T02:35:14.662Z,0
2017-10-31T02:36:14.335Z,0
2017-10-31T02:37:14.677Z,0
2017-10-31T02:38:14.046Z,0
2017-10-31T02:39:14.748Z,0
2017-10-31T02:40:15.065Z,0
2017-10-31T02:41:14.750Z,0
2017-10-31T02:42:14.104Z,0
2017-10-31T02:43:15.101Z,0
2017-10-31T02:44:14.469Z,0
2017-10-31T02:45:14.489Z,0
2017-10-31T02:46:14.493Z,0
2017-10-31T02:47:14.507Z,0
2017-10-31T02:48:14.841Z,0
2017-10-31T02:49:14.912Z,0
2017-10-31T02:50:14.872Z,0
2017-10-31T02:51:14.902Z,0
2017-10-31T02:52:15.240Z,0
2017-10-31T02:53:14.919Z,0
2017-10-31T02:54:15.255Z,0
2017-10-31T02:55:15.282Z,0
2017-10-31T02:56:14.659Z,0
2017-10-31T02:57:14.335Z,0
2017-10-31T02:58:15.012Z,0
2017-10-31T02:59:15.009Z,0
2017-10-31T03:00:14.696Z,0
2017-10-31T03:01:14.717Z,0
2017-10-31T03:02:14.738Z,0
2017-10-31T03:03:15.406Z,0
2017-10-31T03:04:15.407Z,0
2017-10-31T03:05:14.781Z,0
2017-10-31T03:06:14.862Z,0
2017-10-31T03:07:14.819Z,0
2017-10-31T03:08:14.824Z,0
2017-10-31T03:09:15.164Z,0
2017-10-31T03:10:14.534Z,0
2017-10-31T03:11:14.874Z,0
2017-10-31T03:12:14.883Z,0
2017-10-31T03:13:14.926Z,0
2017-10-31T03:14:14.916Z,0
2017-10-31T03:15:15.252Z,0
2017-10-31T03:16:15.264Z,0
2017-10-31T03:17:15.607Z,0
2017-10-31T03:18:14.974Z,0
2017-10-31T03:19:14.991Z,0
2017-10-31T03:20:14.686Z,0
2017-10-31T03:21:15.669Z,0
2017-10-31T03:22:14.814Z,0
2017-10-31T03:23:15.388Z,0
2017-10-31T03:24:14.421Z,0
2017-10-31T03:25:15.434Z,0
2017-10-31T03:26:15.418Z,0
2017-10-31T03:27:15.113Z,0
2017-10-31T03:28:15.121Z,0
2017-10-31T03:29:15.463Z,0
2017-10-31T03:30:15.812Z,0
2017-10-31T03:31:15.201Z,0
2017-10-31T03:32:14.873Z,0
2017-10-31T03:33:15.528Z,0
2017-10-31T03:34:15.538Z,0
2017-10-31T03:35:14.915Z,0
2017-10-31T03:36:15.574Z,0
2017-10-31T03:37:15.908Z,0
2017-10-31T03:38:15.275Z,0
2017-10-31T03:39:15.287Z,0
2017-10-31T03:40:15.634Z,0
2017-10-31T03:41:15.706Z,0
2017-10-31T03:42:15.655Z,0
2017-10-31T03:43:15.679Z,0
2017-10-31T03:44:15.694Z,0
2017-10-31T03:45:15.702Z,0
2017-10-31T03:46:15.722Z,0
2017-10-31T03:47:15.416Z,0
2017-10-31T03:48:15.434Z,0
2017-10-31T03:49:15.773Z,0
2017-10-31T03:50:15.478Z,0
2017-10-31T03:51:15.479Z,0
2017-10-31T03:52:16.138Z,0
2017-10-31T03:53:15.511Z,0
2017-10-31T03:54:15.521Z,0
2017-10-31T03:55:15.540Z,0
2017-10-31T03:56:15.873Z,0
2017-10-31T03:57:15.892Z,0
2017-10-31T03:58:15.901Z,0
2017-10-31T03:59:15.653Z,0
2017-10-31T04:00:15.295Z,0
2017-10-31T04:01:15.631Z,0
2017-10-31T04:02:15.650Z,0
2017-10-31T04:03:15.988Z,0
2017-10-31T04:04:16.317Z,0
2017-10-31T04:05:15.690Z,0
2017-10-31T04:06:15.707Z,0
2017-10-31T04:07:15.394Z,0
2017-10-31T04:08:15.732Z,0
2017-10-31T04:09:16.408Z,0
2017-10-31T04:10:15.442Z,0
2017-10-31T04:11:15.781Z,0
2017-10-31T04:12:16.123Z,0
2017-10-31T04:13:16.458Z,0
2017-10-31T04:14:16.194Z,0
2017-10-31T04:15:16.151Z,0
2017-10-31T04:16:15.538Z,0
2017-10-31T04:17:16.188Z,0
2017-10-31T04:18:16.198Z,0
2017-10-31T04:19:16.244Z,0
2017-10-31T04:20:16.572Z,0
2017-10-31T04:21:16.291Z,0
2017-10-31T04:22:15.631Z,0
2017-10-31T04:23:16.274Z,0
2017-10-31T04:24:16.291Z,0
2017-10-31T04:25:15.984Z,0
2017-10-31T04:26:16.646Z,0
2017-10-31T04:27:16.015Z,0
2017-10-31T04:28:16.026Z,0
2017-10-31T04:29:16.050Z,0
2017-10-31T04:30:16.381Z,0
2017-10-31T04:31:16.450Z,0
2017-10-31T04:32:16.083Z,0
2017-10-31T04:33:16.429Z,0
2017-10-31T04:34:16.113Z,0
2017-10-31T04:35:15.808Z,0
2017-10-31T04:36:16.478Z,0
2017-10-31T04:37:16.160Z,0
2017-10-31T04:38:16.180Z,0
2017-10-31T04:39:15.874Z,0
2017-10-31T04:40:16.234Z,0
2017-10-31T04:41:16.543Z,0
2017-10-31T04:42:16.583Z,0
2017-10-31T04:43:15.926Z,0
2017-10-31T04:44:16.591Z,0
2017-10-31T04:45:15.964Z,0
2017-10-31T04:46:16.616Z,0
2017-10-31T04:47:16.631Z,0
2017-10-31T04:48:16.013Z,0
2017-10-31T04:49:17.043Z,0
2017-10-31T04:50:17.002Z,0
2017-10-31T04:51:16.690Z,0
2017-10-31T04:52:17.030Z,0
2017-10-31T04:53:16.409Z,0
2017-10-31T04:54:16.753Z,0
2017-10-31T04:55:16.110Z,0
2017-10-31T04:56:16.769Z,0
2017-10-31T04:57:16.785Z,0
2017-10-31T04:58:16.797Z,0
2017-10-31T04:59:16.174Z,0
2017-10-31T05:00:17.151Z,0
2017-10-31T05:01:16.844Z,0
2017-10-31T05:02:16.870Z,0
2017-10-31T05:03:16.566Z,0
2017-10-31T05:04:16.296Z,0
2017-10-31T05:05:16.256Z,0
2017-10-31T05:06:16.281Z,0
2017-10-31T05:07:17.253Z,0
2017-10-31T05:08:16.958Z,0
2017-10-31T05:09:16.644Z,0
2017-10-31T05:10:16.656Z,0
2017-10-31T05:11:16.999Z,0
2017-10-31T05:12:16.690Z,0
2017-10-31T05:13:16.697Z,0
2017-10-31T05:14:16.388Z,0
2017-10-31T05:15:16.402Z,0
2017-10-31T05:16:16.418Z,0
2017-10-31T05:17:16.429Z,0
2017-10-31T05:18:17.087Z,0
2017-10-31T05:19:17.426Z,0
2017-10-31T05:20:17.443Z,0
2017-10-31T05:21:16.544Z,0
2017-10-31T05:22:16.837Z,0
2017-10-31T05:23:16.844Z,0
2017-10-31T05:24:17.181Z,0
2017-10-31T05:25:17.526Z,0
2017-10-31T05:26:17.536Z,0
2017-10-31T05:27:16.905Z,0
2017-10-31T05:28:16.918Z,0
2017-10-31T05:29:16.954Z,0
2017-10-31T05:30:17.275Z,0
2017-10-31T05:31:16.983Z,0
2017-10-31T05:32:16.984Z,0
2017-10-31T05:33:16.674Z,0
2017-10-31T05:34:17.023Z,0
2017-10-31T05:35:17.043Z,0
2017-10-31T05:36:17.684Z,0
2017-10-31T05:37:17.376Z,0
2017-10-31T05:38:16.748Z,0
2017-10-31T05:39:17.728Z,0
2017-10-31T05:40:17.789Z,0
2017-10-31T05:41:17.115Z,0
2017-10-31T05:42:16.804Z,0
2017-10-31T05:43:17.469Z,0
2017-10-31T05:44:17.156Z,0
2017-10-31T05:45:17.496Z,0
2017-10-31T05:46:17.523Z,0
2017-10-31T05:47:16.894Z,0
2017-10-31T05:48:17.212Z,0
2017-10-31T05:49:17.548Z,0
2017-10-31T05:50:17.563Z,0
2017-10-31T05:51:17.258Z,0
2017-10-31T05:52:16.951Z,5
2017-10-31T05:53:17.618Z,5
2017-10-31T05:54:17.309Z,5
2017-10-31T05:55:17.384Z,5
2017-10-31T05:56:17.655Z,5
2017-10-31T05:57:17.672Z,5
2017-10-31T05:58:17.689Z,5
2017-10-31T05:59:17.702Z,5
2017-10-31T06:00:17.733Z,5
2017-10-31T06:01:17.405Z,5
2017-10-31T06:02:17.425Z,10
2017-10-31T06:03:17.769Z,10
2017-10-31T06:04:16.806Z,15
2017-10-31T06:05:18.109Z,15
2017-10-31T06:06:17.163Z,15
2017-10-31T06:07:17.817Z,15
2017-10-31T06:08:18.156Z,15
2017-10-31T06:09:17.521Z,20
2017-10-31T06:10:18.177Z,20
2017-10-31T06:11:17.561Z,20
2017-10-31T06:12:17.563Z,20
2017-10-31T06:13:17.589Z,20
2017-10-31T06:14:17.923Z,25
2017-10-31T06:15:17.614Z,25
2017-10-31T06:16:17.628Z,25
2017-10-31T06:17:17.316Z,25
2017-10-31T06:18:17.988Z,30
2017-10-31T06:19:18.003Z,30
2017-10-31T06:20:18.002Z,30
2017-10-31T06:21:17.699Z,35
2017-10-31T06:22:18.357Z,35
2017-10-31T06:23:18.063Z,35
2017-10-31T06:24:17.744Z,35
2017-10-31T06:25:17.436Z,40
2017-10-31T06:26:17.776Z,40
2017-10-31T06:27:17.483Z,40
2017-10-31T06:28:18.130Z,40
2017-10-31T06:29:18.152Z,45
2017-10-31T06:30:17.895Z,45
2017-10-31T06:31:17.852Z,45
2017-10-31T06:32:17.866Z,50
2017-10-31T06:33:17.878Z,50
2017-10-31T06:34:18.231Z,50
2017-10-31T06:35:17.914Z,50
2017-10-31T06:36:17.924Z,55
2017-10-31T06:37:18.256Z,55
2017-10-31T06:38:17.946Z,55
2017-10-31T06:39:18.615Z,60
2017-10-31T06:40:17.983Z,60
2017-10-31T06:41:18.632Z,60
2017-10-31T06:42:18.657Z,60
2017-10-31T06:43:18.355Z,65
2017-10-31T06:44:18.356Z,65
2017-10-31T06:45:18.695Z,65
2017-10-31T06:46:18.439Z,70
2017-10-31T06:47:18.079Z,70
2017-10-31T06:48:18.743Z,70
2017-10-31T06:49:18.752Z,75
2017-10-31T06:50:18.128Z,75
2017-10-31T06:51:18.477Z,75
2017-10-31T06:52:17.839Z,80
2017-10-31T06:53:18.512Z,80
2017-10-31T06:54:18.855Z,80
2017-10-31T06:55:17.895Z,85
2017-10-31T06:56:18.864Z,85
2017-10-31T06:57:18.237Z,85
2017-10-31T06:58:18.248Z,90
2017-10-31T06:59:18.589Z,90
2017-10-31T07:00:18.946Z,95
2017-10-31T07:01:18.618Z,95
2017-10-31T07:02:18.647Z,95
2017-10-31T07:03:18.325Z,100
2017-10-31T07:04:18.979Z,100
2017-10-31T07:05:18.680Z,100
2017-10-31T07:06:18.693Z,100
2017-10-31T07:07:18.070Z,100
2017-10-31T07:08:18.411Z,100
2017-10-31T07:09:18.098Z,105
2017-10-31T07:10:18.438Z,105
2017-10-31T07:11:18.780Z,105
2017-10-31T07:12:18.473Z,110
2017-10-31T07:13:18.153Z,110
2017-10-31T07:14:18.818Z,110
2017-10-31T07:15:19.160Z,115
2017-10-31T07:16:18.850Z,115
2017-10-31T07:17:18.543Z,120
2017-10-31T07:18:19.255Z,120
2017-10-31T07:19:18.895Z,120
2017-10-31T07:20:18.925Z,120
2017-10-31T07:21:18.281Z,120
2017-10-31T07:22:18.939Z,130
2017-10-31T07:23:18.629Z,125
2017-10-31T07:24:18.964Z,125
2017-10-31T07:25:18.990Z,130
2017-10-31T07:26:19.346Z,130
2017-10-31T07:27:18.693Z,135
2017-10-31T07:28:19.049Z,135
2017-10-31T07:29:18.076Z,135
2017-10-31T07:30:19.082Z,140
2017-10-31T07:31:19.426Z,140
2017-10-31T07:32:19.086Z,140
2017-10-31T07:33:18.781Z,140
2017-10-31T07:34:18.524Z,140
2017-10-31T07:35:19.451Z,145
2017-10-31T07:36:19.151Z,140
2017-10-31T07:37:18.841Z,145
2017-10-31T07:38:18.852Z,145
2017-10-31T07:39:19.203Z,145
2017-10-31T07:40:19.219Z,150
2017-10-31T07:41:19.554Z,145
2017-10-31T07:42:19.570Z,150
2017-10-31T07:43:18.943Z,160
2017-10-31T07:44:18.962Z,165
2017-10-31T07:45:19.647Z,165
2017-10-31T07:46:19.300Z,165
2017-10-31T07:47:19.338Z,165
2017-10-31T07:48:19.346Z,165
2017-10-31T07:49:19.682Z,170
2017-10-31T07:50:19.364Z,170
2017-10-31T07:51:19.394Z,170
2017-10-31T07:52:19.396Z,170
2017-10-31T07:53:19.090Z,170
2017-10-31T07:54:19.424Z,170
2017-10-31T07:55:18.482Z,170
2017-10-31T07:56:19.787Z,175
2017-10-31T07:57:18.850Z,175
2017-10-31T07:58:19.499Z,175
2017-10-31T07:59:19.831Z,175
2017-10-31T08:00:18.885Z,180
2017-10-31T08:01:19.232Z,180
2017-10-31T08:02:19.893Z,180
2017-10-31T08:03:18.936Z,190
2017-10-31T08:04:19.007Z,180
2017-10-31T08:05:19.642Z,185
2017-10-31T08:06:19.311Z,185
2017-10-31T08:07:19.719Z,185
2017-10-31T08:08:19.983Z,180
2017-10-31T08:09:19.358Z,180
2017-10-31T08:10:19.370Z,190
2017-10-31T08:11:19.709Z,195
2017-10-31T08:12:19.421Z,190
2017-10-31T08:13:20.068Z,195
2017-10-31T08:14:19.433Z,195
2017-10-31T08:15:19.451Z,200
2017-10-31T08:16:19.149Z,200
2017-10-31T08:17:19.820Z,205
2017-10-31T08:18:19.510Z,200
2017-10-31T08:19:19.528Z,210
2017-10-31T08:20:19.864Z,210
2017-10-31T08:21:19.876Z,205
2017-10-31T08:22:19.566Z,205
2017-10-31T08:23:19.899Z,210
2017-10-31T08:24:19.970Z,215
2017-10-31T08:25:19.926Z,215
2017-10-31T08:26:19.664Z,220
2017-10-31T08:27:19.635Z,220
2017-10-31T08:28:20.300Z,230
2017-10-31T08:29:19.347Z,225
2017-10-31T08:30:19.689Z,225
2017-10-31T08:31:19.398Z,220
2017-10-31T08:32:20.383Z,225
2017-10-31T08:33:20.098Z,220
2017-10-31T08:34:19.766Z,225
2017-10-31T08:35:19.803Z,230
2017-10-31T08:36:19.156Z,230
2017-10-31T08:37:20.467Z,230
2017-10-31T08:38:20.155Z,235
2017-10-31T08:39:19.900Z,235
2017-10-31T08:40:20.192Z,230
2017-10-31T08:41:20.560Z,235
2017-10-31T08:42:20.218Z,235
2017-10-31T08:43:20.241Z,235
2017-10-31T08:44:19.605Z,235
2017-10-31T08:45:19.951Z,235
2017-10-31T08:46:20.287Z,240
2017-10-31T08:47:20.307Z,240
2017-10-31T08:48:19.684Z,240
2017-10-31T08:49:20.012Z,240
2017-10-31T08:50:20.361Z,245
2017-10-31T08:51:20.079Z,245
2017-10-31T08:52:20.390Z,250
2017-10-31T08:53:19.887Z,250
2017-10-31T08:54:20.270Z,260
2017-10-31T08:55:20.452Z,255
2017-10-31T08:56:20.492Z,260
2017-10-31T08:57:20.155Z,260
2017-10-31T08:58:20.177Z,265
2017-10-31T08:59:20.854Z,265
2017-10-31T09:00:20.536Z,265
2017-10-31T09:01:20.231Z,270
2017-10-31T09:02:20.576Z,270
2017-10-31T09:03:19.638Z,275
2017-10-31T09:04:20.286Z,275
2017-10-31T09:05:20.953Z,275
2017-10-31T09:06:20.645Z,280
2017-10-31T09:07:20.335Z,285
2017-10-31T09:08:20.351Z,285
2017-10-31T09:09:20.706Z,285
2017-10-31T09:10:20.412Z,280
2017-10-31T09:11:20.136Z,280
2017-10-31T09:12:20.431Z,280
2017-10-31T09:13:20.434Z,290
2017-10-31T09:14:19.815Z,290
2017-10-31T09:15:20.494Z,295
2017-10-31T09:16:20.169Z,290
2017-10-31T09:17:19.867Z,300
2017-10-31T09:18:20.854Z,300
2017-10-31T09:19:20.548Z,305
2017-10-31T09:20:21.207Z,315
2017-10-31T09:21:20.607Z,315
2017-10-31T09:22:20.924Z,315
2017-10-31T09:23:20.955Z,320
2017-10-31T09:24:20.663Z,325
2017-10-31T09:25:20.333Z,325
2017-10-31T09:26:21.012Z,325
2017-10-31T09:27:21.080Z,325
2017-10-31T09:28:20.395Z,325
2017-10-31T09:29:20.741Z,330
2017-10-31T09:30:21.067Z,335
2017-10-31T09:31:21.091Z,335
2017-10-31T09:32:21.108Z,340
2017-10-31T09:33:21.128Z,340
2017-10-31T09:34:21.151Z,340
2017-10-31T09:35:21.161Z,345
2017-10-31T09:36:21.190Z,340
2017-10-31T09:37:20.889Z,345
2017-10-31T09:38:21.550Z,355
2017-10-31T09:39:21.253Z,365
2017-10-31T09:40:20.621Z,380
2017-10-31T09:41:21.611Z,395
2017-10-31T09:42:20.672Z,415
2017-10-31T09:43:20.727Z,420
2017-10-31T09:44:21.350Z,435
2017-10-31T09:45:21.034Z,440
2017-10-31T09:46:20.730Z,525
2017-10-31T09:47:20.764Z,925
2017-10-31T09:48:21.460Z,1160
2017-10-31T09:49:21.121Z,1220
2017-10-31T09:50:21.128Z,1235
2017-10-31T09:51:21.472Z,1040
2017-10-31T09:52:21.167Z,935
2017-10-31T09:53:21.253Z,1115
2017-10-31T09:54:20.884Z,1160
2017-10-31T09:55:21.240Z,1290
2017-10-31T09:56:20.930Z,1390
2017-10-31T09:57:21.909Z,1355
2017-10-31T09:58:21.670Z,1305
2017-10-31T09:59:21.321Z,1010
2017-10-31T10:00:22.000Z,925
2017-10-31T10:01:21.041Z,760
2017-10-31T10:02:22.026Z,825
2017-10-31T10:03:22.065Z,910
2017-10-31T10:04:21.451Z,1030
2017-10-31T10:05:21.462Z,1040
2017-10-31T10:06:21.812Z,920
2017-10-31T10:07:21.513Z,1010
2017-10-31T10:08:21.866Z,1070
2017-10-31T10:09:21.579Z,1120
2017-10-31T10:10:21.577Z,1125
2017-10-31T10:11:21.934Z,1150
2017-10-31T10:12:20.989Z,1220
2017-10-31T10:13:21.703Z,1215
2017-10-31T10:14:21.355Z,1220
2017-10-31T10:15:21.387Z,1280
2017-10-31T10:16:21.727Z,1270
2017-10-31T10:17:22.076Z,1320
2017-10-31T10:18:21.462Z,1305
2017-10-31T10:19:22.445Z,1300
2017-10-31T10:20:21.184Z,1340
2017-10-31T10:21:22.173Z,1315
2017-10-31T10:22:21.887Z,1325
2017-10-31T10:23:21.578Z,1295
2017-10-31T10:24:21.609Z,1245
2017-10-31T10:25:21.951Z,1245
2017-10-31T10:26:22.312Z,1230
2017-10-31T10:27:22.330Z,1210
2017-10-31T10:28:21.709Z,1110
2017-10-31T10:29:21.885Z,1195
2017-10-31T10:30:22.403Z,1285
2017-10-31T10:31:21.465Z,1495
2017-10-31T10:32:21.812Z,1055
2017-10-31T10:33:22.485Z,970
2017-10-31T10:34:22.535Z,1210
2017-10-31T10:35:22.215Z,1185
2017-10-31T10:36:22.560Z,980
2017-10-31T10:37:22.266Z,890
2017-10-31T10:38:21.969Z,880
2017-10-31T10:39:22.640Z,840
2017-10-31T10:40:22.672Z,800
2017-10-31T10:41:22.368Z,760
2017-10-31T10:42:22.716Z,750
2017-10-31T10:43:22.746Z,795
2017-10-31T10:44:22.763Z,880
2017-10-31T10:45:22.528Z,970
2017-10-31T10:46:22.501Z,1070
2017-10-31T10:47:23.165Z,1160
2017-10-31T10:48:22.877Z,1130
2017-10-31T10:49:22.898Z,1120
2017-10-31T10:50:22.615Z,1215
2017-10-31T10:51:22.965Z,1355
2017-10-31T10:52:22.982Z,1470
2017-10-31T10:53:22.693Z,1540
2017-10-31T10:54:22.717Z,1575
2017-10-31T10:55:23.066Z,1650
2017-10-31T10:56:23.409Z,1695
2017-10-31T10:57:23.126Z,1675
2017-10-31T10:58:23.474Z,1560
2017-10-31T10:59:22.214Z,1495
2017-10-31T11:00:22.933Z,1535
2017-10-31T11:01:23.232Z,1475
2017-10-31T11:02:22.934Z,1540
2017-10-31T11:03:22.958Z,1585
2017-10-31T11:04:22.993Z,1520
2017-10-31T11:05:23.347Z,1405
2017-10-31T11:06:22.403Z,1270
2017-10-31T11:07:22.762Z,1115
2017-10-31T11:08:23.754Z,520
2017-10-31T11:09:23.134Z,485
2017-10-31T11:10:23.483Z,465
2017-10-31T11:11:23.830Z,465
2017-10-31T11:12:23.225Z,465
2017-10-31T11:13:23.573Z,475
2017-10-31T11:14:23.929Z,475
2017-10-31T11:15:23.305Z,475
2017-10-31T11:16:23.697Z,475
2017-10-31T11:17:23.363Z,435
2017-10-31T11:18:23.713Z,430
2017-10-31T11:19:24.060Z,410
2017-10-31T11:20:23.761Z,405
2017-10-31T11:21:24.108Z,400
2017-10-31T11:22:23.818Z,390
2017-10-31T11:23:23.197Z,395
2017-10-31T11:24:23.871Z,395
2017-10-31T11:25:23.893Z,425
2017-10-31T11:26:23.278Z,535
2017-10-31T11:27:23.946Z,1260
2017-10-31T11:28:23.964Z,1410
2017-10-31T11:29:24.325Z,1390
2017-10-31T11:30:23.705Z,1300
2017-10-31T11:31:23.410Z,1335
2017-10-31T11:32:23.743Z,1430
2017-10-31T11:33:24.101Z,1630
2017-10-31T11:34:23.796Z,1565
2017-10-31T11:35:23.500Z,1565
2017-10-31T11:36:24.204Z,1580
2017-10-31T11:37:23.549Z,1590
2017-10-31T11:38:23.911Z,1605
2017-10-31T11:39:23.928Z,1435
2017-10-31T11:40:24.279Z,1255
2017-10-31T11:41:24.642Z,1310
2017-10-31T11:42:24.356Z,1605
2017-10-31T11:43:23.718Z,1625
2017-10-31T11:44:24.382Z,1415
2017-10-31T11:45:24.109Z,965
2017-10-31T11:46:24.447Z,1200
2017-10-31T11:47:24.155Z,1550
2017-10-31T11:48:24.500Z,1490
2017-10-31T11:49:24.203Z,1540
2017-10-31T11:50:24.306Z,1570
2017-10-31T11:51:24.581Z,1675
2017-10-31T11:52:24.288Z,1590
2017-10-31T11:53:24.653Z,1525
2017-10-31T11:54:24.352Z,1415
2017-10-31T11:55:24.398Z,1405
2017-10-31T11:56:25.049Z,1430
2017-10-31T11:57:24.113Z,1340
2017-10-31T11:58:24.787Z,1440
2017-10-31T11:59:24.822Z,1505
2017-10-31T12:00:24.860Z,1745
2017-10-31T12:01:24.556Z,1860
2017-10-31T12:02:24.591Z,2020
2017-10-31T12:03:24.296Z,2095
2017-10-31T12:04:24.974Z,2085
2017-10-31T12:05:25.047Z,2130
2017-10-31T12:06:25.024Z,2140
2017-10-31T12:07:24.747Z,2055
2017-10-31T12:08:25.081Z,2195
2017-10-31T12:09:24.794Z,2370
2017-10-31T12:10:25.499Z,2360
2017-10-31T12:11:24.545Z,2450
2017-10-31T12:12:24.578Z,2600
2017-10-31T12:13:25.246Z,2730
2017-10-31T12:14:25.046Z,2605
2017-10-31T12:15:25.299Z,840
2017-10-31T12:16:25.655Z,755
2017-10-31T12:17:24.720Z,655
2017-10-31T12:18:25.079Z,920
2017-10-31T12:19:25.108Z,1265
2017-10-31T12:20:25.140Z,525
2017-10-31T12:21:25.491Z,470
2017-10-31T12:22:25.519Z,460
2017-10-31T12:23:25.558Z,480
2017-10-31T12:24:25.576Z,555
2017-10-31T12:25:25.295Z,610
2017-10-31T12:26:25.639Z,645
2017-10-31T12:27:25.365Z,630
2017-10-31T12:28:25.700Z,610
2017-10-31T12:29:25.415Z,575
2017-10-31T12:30:25.446Z,2320
2017-10-31T12:31:24.813Z,2400
2017-10-31T12:32:25.503Z,2700
2017-10-31T12:33:25.845Z,2745
2017-10-31T12:34:25.233Z,2935
2017-10-31T12:35:25.912Z,2735
2017-10-31T12:36:25.945Z,2420
2017-10-31T12:37:25.372Z,1855
2017-10-31T12:38:26.003Z,1385
2017-10-31T12:39:26.342Z,1380
2017-10-31T12:40:25.406Z,1720
2017-10-31T12:41:26.084Z,2055
2017-10-31T12:42:25.463Z,2275
2017-10-31T12:43:26.143Z,2390
2017-10-31T12:44:25.530Z,2315
2017-10-31T12:45:25.880Z,2150
2017-10-31T12:46:25.588Z,2220
2017-10-31T12:47:25.945Z,1985
2017-10-31T12:48:26.292Z,2380
2017-10-31T12:49:26.358Z,2415
2017-10-31T12:50:25.714Z,2410
2017-10-31T12:51:26.401Z,1085
2017-10-31T12:52:26.097Z,715
2017-10-31T12:53:26.124Z,955
2017-10-31T12:54:26.159Z,2105
2017-10-31T12:55:26.879Z,2115
2017-10-31T12:56:25.896Z,1830
2017-10-31T12:57:26.591Z,1820
2017-10-31T12:58:26.604Z,1540
2017-10-31T12:59:26.309Z,630
2017-10-31T13:00:26.353Z,720
2017-10-31T13:01:27.026Z,1540
2017-10-31T13:02:26.716Z,1370
2017-10-31T13:03:26.750Z,2270
2017-10-31T13:04:26.795Z,1150
2017-10-31T13:05:26.488Z,975
2017-10-31T13:06:26.842Z,680
2017-10-31T13:07:26.886Z,2060
2017-10-31T13:08:26.585Z,1940
2017-10-31T13:09:26.935Z,690
2017-10-31T13:10:27.328Z,505
2017-10-31T13:11:26.661Z,940
2017-10-31T13:12:27.015Z,710
2017-10-31T13:13:26.065Z,1325
2017-10-31T13:14:27.048Z,515
2017-10-31T13:15:26.767Z,505
2017-10-31T13:16:27.120Z,535
2017-10-31T13:17:26.821Z,1190
2017-10-31T13:18:26.855Z,1460
2017-10-31T13:19:26.873Z,1295
2017-10-31T13:20:26.904Z,965
2017-10-31T13:21:26.632Z,1565
2017-10-31T13:22:26.965Z,2095
2017-10-31T13:23:27.637Z,2245
2017-10-31T13:24:27.023Z,2370
2017-10-31T13:25:26.752Z,2330
2017-10-31T13:26:27.446Z,2305
2017-10-31T13:27:27.437Z,2350
2017-10-31T13:28:27.463Z,2375
2017-10-31T13:29:27.493Z,2340
2017-10-31T13:30:27.186Z,2260
2017-10-31T13:31:27.544Z,2295
2017-10-31T13:32:27.891Z,2565
2017-10-31T13:33:27.586Z,2920
2017-10-31T13:34:27.288Z,2425
2017-10-31T13:35:27.650Z,2160
2017-10-31T13:36:27.351Z,2280
2017-10-31T13:37:27.066Z,2320
2017-10-31T13:38:27.413Z,2335
2017-10-31T13:39:27.444Z,2230
2017-10-31T13:40:28.124Z,2090
2017-10-31T13:41:27.549Z,2030
2017-10-31T13:42:28.182Z,2160
2017-10-31T13:43:27.902Z,2200
2017-10-31T13:44:27.914Z,2115
2017-10-31T13:45:27.625Z,2100
2017-10-31T13:46:27.651Z,2195
2017-10-31T13:47:27.685Z,2250
2017-10-31T13:48:28.370Z,2205
2017-10-31T13:49:27.750Z,2130
2017-10-31T13:50:28.105Z,2105
2017-10-31T13:51:27.837Z,2185
2017-10-31T13:52:27.841Z,2115
2017-10-31T13:53:28.189Z,1990
2017-10-31T13:54:27.591Z,2035
2017-10-31T13:55:27.937Z,2155
2017-10-31T13:56:28.611Z,2220
2017-10-31T13:57:28.462Z,2280
2017-10-31T13:58:27.708Z,2250
2017-10-31T13:59:28.054Z,2180
2017-10-31T14:00:28.429Z,2190
2017-10-31T14:01:28.443Z,2190
2017-10-31T14:02:27.828Z,2215
2017-10-31T14:03:28.833Z,2245
2017-10-31T14:04:28.875Z,2195
2017-10-31T14:05:28.575Z,1780
2017-10-31T14:06:28.281Z,1160